createdAt,value
2017-10-27T00:01:39.508Z,19.03
2017-10-27T00:04:06.125Z,21.00
2017-10-27T00:06:32.760Z,22.07
2017-10-27T00:08:59.400Z,21.00
2017-10-27T00:11:26.037Z,19.40
2017-10-27T00:13:52.690Z,24.40
2017-10-27T00:16:19.320Z,20.73
2017-10-27T00:18:45.965Z,16.70
2017-10-27T00:21:12.606Z,20.47
2017-10-27T00:23:39.277Z,19.57
2017-10-27T00:26:05.928Z,18.37
2017-10-27T00:28:32.567Z,18.37
2017-10-27T00:30:59.204Z,17.60
2017-10-27T00:33:25.819Z,15.87
2017-10-27T00:35:52.465Z,17.13
2017-10-27T00:38:19.090Z,15.70
2017-10-27T00:40:45.731Z,16.27
2017-10-27T00:43:12.368Z,16.80
2017-10-27T00:45:38.992Z,16.40
2017-10-27T00:48:05.660Z,18.27
2017-10-27T00:50:32.284Z,16.90
2017-10-27T00:52:58.890Z,17.10
2017-10-27T00:55:25.769Z,19.33
2017-10-27T00:57:52.403Z,16.53
2017-10-27T01:00:19.106Z,19.43
2017-10-27T01:02:45.789Z,16.93
2017-10-27T01:05:12.411Z,20.23
2017-10-27T01:07:39.046Z,17.37
2017-10-27T01:10:05.695Z,18.23
2017-10-27T01:12:32.376Z,18.53
2017-10-27T01:14:59.053Z,17.80
2017-10-27T01:17:25.662Z,16.67
2017-10-27T01:19:52.274Z,18.00
2017-10-27T01:22:19.209Z,14.57
2017-10-27T01:24:45.827Z,16.20
2017-10-27T01:27:12.451Z,16.47
2017-10-27T01:29:39.091Z,15.90
2017-10-27T01:32:05.714Z,16.23
2017-10-27T01:34:32.340Z,15.50
2017-10-27T01:36:58.959Z,16.47
2017-10-27T01:39:25.586Z,15.93
2017-10-27T01:41:52.224Z,15.50
2017-10-27T01:44:19.510Z,15.40
2017-10-27T01:46:46.142Z,14.90
2017-10-27T01:49:12.765Z,14.60
2017-10-27T01:51:39.427Z,14.77
2017-10-27T01:54:06.075Z,15.40
2017-10-27T01:56:33.240Z,17.43
2017-10-27T01:58:59.880Z,16.10
2017-10-27T02:01:26.560Z,20.53
2017-10-27T02:03:53.219Z,21.40
2017-10-27T02:06:19.826Z,15.67
2017-10-27T02:08:46.439Z,15.70
2017-10-27T02:11:13.074Z,17.07
2017-10-27T02:13:39.723Z,14.03
2017-10-27T02:16:06.375Z,15.63
2017-10-27T02:18:33.029Z,16.40
2017-10-27T02:20:59.655Z,17.83
2017-10-27T02:23:26.367Z,16.40
2017-10-27T02:25:52.974Z,17.37
2017-10-27T02:28:19.592Z,18.30
2017-10-27T02:30:46.245Z,17.10
2017-10-27T02:33:12.859Z,18.80
2017-10-27T02:35:39.505Z,16.93
2017-10-27T02:38:06.199Z,17.87
2017-10-27T02:40:32.813Z,18.03
2017-10-27T02:42:59.809Z,17.03
2017-10-27T02:45:26.446Z,17.00
2017-10-27T02:47:53.080Z,16.53
2017-10-27T02:50:19.721Z,16.73
2017-10-27T02:52:46.396Z,17.27
2017-10-27T02:55:13.019Z,19.50
2017-10-27T02:57:39.668Z,18.53
2017-10-27T03:00:06.328Z,18.37
2017-10-27T03:02:32.943Z,18.53
2017-10-27T03:04:59.583Z,19.47
2017-10-27T03:07:26.207Z,18.00
2017-10-27T03:09:53.422Z,18.90
2017-10-27T03:12:20.080Z,19.57
2017-10-27T03:14:46.699Z,18.57
2017-10-27T03:17:13.347Z,17.87
2017-10-27T03:19:40.375Z,17.63
2017-10-27T03:22:07.039Z,17.83
2017-10-27T03:24:33.709Z,17.47
2017-10-27T03:27:00.352Z,17.73
2017-10-27T03:29:26.975Z,17.70
2017-10-27T03:31:53.588Z,13.87
2017-10-27T03:34:20.222Z,13.57
2017-10-27T03:36:46.875Z,15.77
2017-10-27T03:39:13.515Z,14.13
2017-10-27T03:41:40.142Z,14.80
2017-10-27T03:44:06.781Z,12.03
2017-10-27T03:46:33.394Z,17.53
2017-10-27T03:49:00.011Z,18.87
2017-10-27T03:51:26.666Z,16.80
2017-10-27T03:53:53.300Z,17.77
2017-10-27T03:56:19.931Z,16.07
2017-10-27T03:58:46.597Z,15.53
2017-10-27T04:01:13.211Z,14.37
2017-10-27T04:03:39.846Z,14.40
2017-10-27T04:06:06.475Z,12.70
2017-10-27T04:08:33.127Z,11.00
2017-10-27T04:10:59.746Z,13.20
2017-10-27T04:13:26.380Z,12.07
2017-10-27T04:15:53.010Z,13.40
2017-10-27T04:18:19.650Z,12.17
2017-10-27T04:20:46.279Z,13.13
2017-10-27T04:23:12.919Z,11.60
2017-10-27T04:25:39.538Z,12.23
2017-10-27T04:28:06.219Z,10.30
2017-10-27T04:30:32.839Z,11.90
2017-10-27T04:32:59.511Z,11.00
2017-10-27T04:35:26.129Z,9.63
2017-10-27T04:37:52.756Z,10.40
2017-10-27T04:40:20.109Z,9.63
2017-10-27T04:42:46.727Z,8.93
2017-10-27T04:45:13.343Z,8.27
2017-10-27T04:47:39.974Z,7.40
2017-10-27T04:50:06.611Z,7.10
2017-10-27T04:52:33.227Z,7.67
2017-10-27T04:54:59.872Z,8.10
2017-10-27T04:57:26.496Z,6.50
2017-10-27T04:59:53.124Z,6.80
2017-10-27T05:02:20.624Z,6.30
2017-10-27T05:04:47.721Z,7.30
2017-10-27T05:07:14.871Z,6.47
2017-10-27T05:09:42.967Z,7.27
2017-10-27T05:12:09.610Z,7.10
2017-10-27T05:14:37.775Z,7.10
2017-10-27T05:17:10.972Z,6.13
2017-10-27T05:19:43.363Z,6.23
2017-10-27T05:22:15.702Z,5.73
2017-10-27T05:24:42.370Z,6.47
2017-10-27T05:27:08.972Z,4.30
2017-10-27T05:29:35.609Z,4.60
2017-10-27T05:32:03.162Z,5.20
2017-10-27T05:34:30.387Z,4.83
2017-10-27T05:36:56.994Z,4.50
2017-10-27T05:39:23.644Z,4.60
2017-10-27T05:41:50.266Z,6.03
2017-10-27T05:44:16.875Z,4.27
2017-10-27T05:46:43.496Z,4.33
2017-10-27T05:49:10.095Z,4.07
2017-10-27T05:51:37.267Z,4.80
2017-10-27T05:54:03.882Z,4.60
2017-10-27T05:56:30.502Z,4.57
2017-10-27T05:58:57.131Z,3.60
2017-10-27T06:01:23.739Z,4.50
2017-10-27T06:03:50.386Z,4.10
2017-10-27T06:06:17.011Z,5.00
2017-10-27T06:08:43.619Z,5.27
2017-10-27T06:11:10.226Z,4.67
2017-10-27T06:13:36.857Z,4.47
2017-10-27T06:16:03.471Z,4.30
2017-10-27T06:18:30.098Z,4.70
2017-10-27T06:20:56.734Z,4.87
2017-10-27T06:23:23.358Z,4.33
2017-10-27T06:25:49.964Z,3.90
2017-10-27T06:28:16.598Z,4.00
2017-10-27T06:30:43.231Z,4.00
2017-10-27T06:33:09.823Z,4.57
2017-10-27T06:35:36.449Z,4.60
2017-10-27T06:38:03.051Z,4.70
2017-10-27T06:40:29.675Z,3.83
2017-10-27T06:42:56.295Z,4.93
2017-10-27T06:45:22.920Z,4.57
2017-10-27T06:47:49.546Z,3.00
2017-10-27T06:50:16.151Z,4.97
2017-10-27T06:52:42.759Z,4.23
2017-10-27T06:55:09.391Z,3.07
2017-10-27T06:57:36.026Z,3.40
2017-10-27T07:00:02.666Z,2.90
2017-10-27T07:02:29.294Z,3.47
2017-10-27T07:04:55.927Z,2.50
2017-10-27T07:07:22.547Z,4.00
2017-10-27T07:09:49.170Z,2.53
2017-10-27T07:12:15.809Z,4.30
2017-10-27T07:14:42.430Z,2.90
2017-10-27T07:17:09.046Z,5.17
2017-10-27T07:19:35.678Z,3.40
2017-10-27T07:22:02.280Z,4.40
2017-10-27T07:24:28.904Z,3.90
2017-10-27T07:26:55.546Z,4.53
2017-10-27T07:29:22.142Z,2.67
2017-10-27T07:31:48.770Z,2.63
2017-10-27T07:34:15.406Z,3.20
2017-10-27T07:36:42.009Z,3.73
2017-10-27T07:39:08.626Z,3.57
2017-10-27T07:41:35.239Z,2.83
2017-10-27T07:44:01.888Z,3.20
2017-10-27T07:46:28.485Z,3.10
2017-10-27T07:48:55.109Z,3.27
2017-10-27T07:51:21.737Z,3.57
2017-10-27T07:53:48.377Z,3.40
2017-10-27T07:56:14.974Z,2.70
2017-10-27T07:58:41.600Z,2.43
2017-10-27T08:01:08.214Z,2.80
2017-10-27T08:03:34.836Z,2.60
2017-10-27T08:06:01.471Z,2.90
2017-10-27T08:08:28.098Z,2.63
2017-10-27T08:10:54.707Z,2.13
2017-10-27T08:13:21.331Z,3.50
2017-10-27T08:15:48.295Z,2.17
2017-10-27T08:18:14.898Z,2.43
2017-10-27T08:20:41.510Z,2.23
2017-10-27T08:23:08.671Z,2.87
2017-10-27T08:25:37.188Z,2.43
2017-10-27T08:28:04.647Z,2.17
2017-10-27T08:30:31.291Z,3.73
2017-10-27T08:32:57.999Z,4.00
2017-10-27T08:35:25.904Z,2.87
2017-10-27T08:37:52.547Z,3.03
2017-10-27T08:40:19.178Z,3.17
2017-10-27T08:42:45.799Z,3.17
2017-10-27T08:45:12.882Z,2.77
2017-10-27T08:47:39.516Z,3.30
2017-10-27T08:50:06.110Z,2.60
2017-10-27T08:52:32.770Z,2.60
2017-10-27T08:54:59.376Z,2.60
2017-10-27T08:57:26.015Z,2.63
2017-10-27T08:59:52.661Z,2.47
2017-10-27T09:02:19.265Z,3.80
2017-10-27T09:04:45.924Z,3.07
2017-10-27T09:07:12.574Z,2.60
2017-10-27T09:09:39.256Z,1.97
2017-10-27T09:12:05.874Z,3.17
2017-10-27T09:14:32.488Z,3.00
2017-10-27T09:16:59.114Z,2.00
2017-10-27T09:19:25.757Z,2.20
2017-10-27T09:21:52.368Z,2.90
2017-10-27T09:24:18.992Z,2.87
2017-10-27T09:32:13.157Z,2.37
2017-10-27T09:34:39.799Z,3.93
2017-10-27T09:37:06.437Z,2.10
2017-10-27T09:39:33.069Z,1.70
2017-10-27T09:41:59.683Z,1.80
2017-10-27T09:44:26.295Z,2.13
2017-10-27T09:46:52.954Z,1.87
2017-10-27T09:49:19.575Z,2.80
2017-10-27T09:51:46.210Z,10.47
2017-10-27T09:54:12.854Z,11.00
2017-10-27T09:56:39.485Z,6.07
2017-10-27T09:59:06.106Z,3.80
2017-10-27T10:01:32.725Z,3.47
2017-10-27T10:03:59.363Z,2.03
2017-10-27T10:06:25.989Z,1.90
2017-10-27T10:08:52.655Z,2.83
2017-10-27T10:11:19.291Z,3.37
2017-10-27T10:13:45.907Z,2.13
2017-10-27T10:16:12.542Z,2.20
2017-10-27T10:18:39.151Z,1.90
2017-10-27T10:21:05.775Z,2.40
2017-10-27T10:23:32.394Z,1.80
2017-10-27T10:25:59.034Z,2.27
2017-10-27T10:28:25.667Z,2.00
2017-10-27T10:30:52.910Z,1.97
2017-10-27T10:33:19.523Z,1.90
2017-10-27T10:35:46.159Z,1.47
2017-10-27T10:38:13.468Z,2.80
2017-10-27T10:40:40.838Z,1.73
2017-10-27T10:43:07.462Z,1.60
2017-10-27T10:45:34.063Z,1.80
2017-10-27T10:48:00.700Z,2.40
2017-10-27T10:50:27.326Z,4.20
2017-10-27T10:52:53.959Z,2.73
2017-10-27T10:55:20.591Z,3.10
2017-10-27T10:57:47.224Z,2.07
2017-10-27T11:00:13.863Z,2.47
2017-10-27T11:02:40.499Z,1.90
2017-10-27T11:05:07.103Z,1.93
2017-10-27T11:07:33.741Z,1.63
2017-10-27T11:10:00.340Z,1.87
2017-10-27T11:12:26.975Z,1.93
2017-10-27T11:14:53.586Z,2.20
2017-10-27T11:17:20.214Z,2.67
2017-10-27T11:19:46.819Z,2.63
2017-10-27T11:22:13.441Z,1.80
2017-10-27T11:24:40.071Z,3.07
2017-10-27T11:27:06.709Z,2.50
2017-10-27T11:29:33.340Z,1.63
2017-10-27T11:31:59.943Z,2.13
2017-10-27T11:34:26.593Z,2.20
2017-10-27T11:36:53.193Z,2.03
2017-10-27T11:39:19.811Z,2.33
2017-10-27T11:41:46.441Z,2.10
2017-10-27T11:44:13.096Z,2.40
2017-10-27T11:46:39.695Z,1.73
2017-10-27T11:49:06.887Z,1.47
2017-10-27T11:51:33.514Z,1.50
2017-10-27T11:54:00.157Z,2.23
2017-10-27T11:56:26.761Z,1.87
2017-10-27T11:58:53.392Z,1.70
2017-10-27T12:01:20.009Z,1.30
2017-10-27T12:03:46.619Z,1.63
2017-10-27T12:06:13.246Z,1.63
2017-10-27T12:08:39.863Z,1.60
2017-10-27T12:11:06.492Z,1.50
2017-10-27T12:13:33.103Z,2.13
2017-10-27T12:15:59.718Z,1.43
2017-10-27T12:18:26.370Z,1.53
2017-10-27T12:20:52.990Z,1.23
2017-10-27T12:23:19.622Z,1.67
2017-10-27T12:25:46.250Z,1.70
2017-10-27T12:28:12.915Z,2.17
2017-10-27T12:30:39.566Z,1.37
2017-10-27T12:33:06.194Z,2.63
2017-10-27T12:35:32.811Z,1.40
2017-10-27T12:37:59.428Z,2.13
2017-10-27T12:40:26.043Z,2.20
2017-10-27T12:42:52.667Z,3.63
2017-10-27T12:45:19.306Z,1.77
2017-10-27T12:47:45.903Z,2.90
2017-10-27T12:50:12.531Z,1.77
2017-10-27T12:52:39.175Z,1.80
2017-10-27T12:55:05.804Z,2.53
2017-10-27T12:57:32.439Z,1.83
2017-10-27T12:59:59.039Z,1.00
2017-10-27T13:02:25.688Z,1.90
2017-10-27T13:04:52.336Z,1.40
2017-10-27T13:07:18.975Z,1.40
2017-10-27T13:09:45.594Z,1.47
2017-10-27T13:12:12.211Z,1.77
2017-10-27T13:14:38.873Z,1.80
2017-10-27T13:17:05.507Z,2.30
2017-10-27T13:19:32.122Z,1.70
2017-10-27T13:21:58.758Z,1.67
2017-10-27T13:24:25.383Z,1.80
2017-10-27T13:26:52.011Z,2.63
2017-10-27T13:29:18.649Z,1.70
2017-10-27T13:31:45.295Z,1.80
2017-10-27T13:34:11.930Z,1.60
2017-10-27T13:36:38.590Z,1.73
2017-10-27T13:39:05.209Z,1.77
2017-10-27T13:41:31.831Z,1.20
2017-10-27T13:43:58.505Z,1.90
2017-10-27T13:46:25.150Z,1.70
2017-10-27T13:48:52.004Z,1.53
2017-10-27T13:51:18.640Z,1.43
2017-10-27T13:53:45.292Z,2.30
2017-10-27T13:56:11.907Z,1.67
2017-10-27T13:58:38.536Z,1.40
2017-10-27T14:01:05.195Z,1.60
2017-10-27T14:03:31.794Z,1.30
2017-10-27T14:05:58.437Z,1.10
2017-10-27T14:08:25.034Z,1.63
2017-10-27T14:10:51.716Z,2.23
2017-10-27T14:13:18.379Z,1.40
2017-10-27T14:15:44.979Z,1.50
2017-10-27T14:18:11.604Z,1.50
2017-10-27T14:20:38.208Z,1.63
2017-10-27T14:23:04.823Z,1.60
2017-10-27T14:25:31.445Z,1.80
2017-10-27T14:27:58.071Z,1.63
2017-10-27T14:30:24.695Z,1.80
2017-10-27T14:32:51.341Z,1.67
2017-10-27T14:35:17.962Z,1.70
2017-10-27T14:37:44.559Z,2.10
2017-10-27T14:40:11.210Z,1.67
2017-10-27T14:42:37.840Z,1.63
2017-10-27T14:45:04.479Z,2.23
2017-10-27T14:47:31.118Z,1.80
2017-10-27T14:49:57.722Z,3.10
2017-10-27T14:52:24.357Z,2.50
2017-10-27T14:54:50.957Z,1.67
2017-10-27T14:57:17.588Z,1.37
2017-10-27T14:59:44.210Z,1.97
2017-10-27T15:02:10.849Z,2.13
2017-10-27T15:04:37.456Z,1.70
2017-10-27T15:07:04.080Z,1.70
2017-10-27T15:09:31.466Z,1.97
2017-10-27T15:11:58.123Z,3.13
2017-10-27T15:14:24.770Z,2.10
2017-10-27T15:16:51.391Z,2.83
2017-10-27T15:19:18.035Z,2.43
2017-10-27T15:21:45.051Z,2.10
2017-10-27T15:24:11.674Z,4.10
2017-10-27T15:26:38.320Z,2.67
2017-10-27T15:29:04.967Z,2.53
2017-10-27T15:31:31.586Z,2.67
2017-10-27T15:33:58.334Z,2.10
2017-10-27T15:36:24.988Z,4.80
2017-10-27T15:38:51.606Z,2.00
2017-10-27T15:47:59.706Z,2.13
2017-10-27T15:50:26.314Z,2.50
2017-10-27T15:52:52.952Z,2.60
2017-10-27T15:55:19.611Z,1.80
2017-10-27T15:57:46.217Z,2.80
2017-10-27T16:00:12.872Z,1.97
2017-10-27T16:02:39.494Z,2.10
2017-10-27T16:05:06.107Z,2.10
2017-10-27T16:07:32.727Z,2.50
2017-10-27T16:09:59.371Z,2.67
2017-10-27T16:12:26.004Z,2.33
2017-10-27T16:14:52.649Z,3.30
2017-10-27T16:17:19.285Z,2.50
2017-10-27T16:19:45.938Z,2.40
2017-10-27T16:22:12.546Z,2.57
2017-10-27T16:24:39.174Z,2.20
2017-10-27T16:27:05.801Z,2.60
2017-10-27T16:29:32.411Z,1.80
2017-10-27T16:31:59.074Z,3.10
2017-10-27T16:34:25.719Z,1.87
2017-10-27T16:36:52.356Z,2.93
2017-10-27T16:39:18.987Z,2.07
2017-10-27T16:41:45.600Z,2.70
2017-10-27T16:44:12.255Z,2.30
2017-10-27T16:46:38.878Z,3.10
2017-10-27T16:49:05.519Z,2.70
2017-10-27T16:51:32.163Z,2.47
2017-10-27T16:53:58.830Z,2.67
2017-10-27T16:56:25.458Z,2.67
2017-10-27T16:58:52.062Z,2.57
2017-10-27T17:01:18.707Z,2.80
2017-10-27T17:03:45.326Z,2.80
2017-10-27T17:06:11.946Z,2.40
2017-10-27T17:08:38.570Z,2.97
2017-10-27T17:11:05.209Z,2.33
2017-10-27T17:13:31.846Z,3.33
2017-10-27T17:15:58.457Z,4.20
2017-10-27T17:18:25.088Z,4.47
2017-10-27T17:20:51.751Z,3.63
2017-10-27T17:23:18.371Z,4.23
2017-10-27T17:25:45.003Z,2.80
2017-10-27T17:28:11.631Z,3.13
2017-10-27T17:30:38.254Z,2.40
2017-10-27T17:33:04.884Z,2.53
2017-10-27T17:35:31.494Z,2.03
2017-10-27T17:37:58.143Z,2.03
2017-10-27T17:40:24.759Z,2.50
2017-10-27T17:42:51.418Z,2.40
2017-10-27T17:45:18.089Z,3.17
2017-10-27T17:47:44.942Z,2.07
2017-10-27T17:50:11.563Z,3.43
2017-10-27T17:52:39.120Z,2.67
2017-10-27T17:55:06.585Z,2.90
2017-10-27T17:57:33.209Z,2.67
2017-10-27T17:59:59.890Z,3.53
2017-10-27T18:02:26.532Z,4.40
2017-10-27T18:04:53.183Z,3.50
2017-10-27T18:07:19.800Z,3.30
2017-10-27T18:09:46.439Z,4.73
2017-10-27T18:12:14.054Z,4.10
2017-10-27T18:14:40.677Z,3.10
2017-10-27T18:17:07.325Z,4.70
2017-10-27T18:19:33.958Z,3.53
2017-10-27T18:22:00.596Z,3.10
2017-10-27T18:24:27.229Z,4.50
2017-10-27T18:26:53.924Z,3.50
2017-10-27T18:29:20.548Z,3.93
2017-10-27T18:31:47.214Z,4.40
2017-10-27T18:34:13.853Z,4.13
2017-10-27T18:36:41.812Z,4.67
2017-10-27T18:39:09.791Z,4.00
2017-10-27T18:41:36.499Z,2.63
2017-10-27T18:44:03.121Z,2.87
2017-10-27T18:46:29.752Z,2.90
2017-10-27T18:48:56.390Z,2.63
2017-10-27T18:51:23.016Z,2.70
2017-10-27T18:53:49.680Z,3.47
2017-10-27T18:56:16.291Z,7.30
2017-10-27T18:58:42.948Z,7.20
2017-10-27T19:01:09.588Z,5.47
2017-10-27T19:03:36.217Z,3.87
2017-10-27T19:06:02.863Z,3.57
2017-10-27T19:08:29.511Z,3.60
2017-10-27T19:10:56.208Z,3.70
2017-10-27T19:13:22.893Z,2.80
2017-10-27T19:15:49.572Z,3.60
2017-10-27T19:18:16.191Z,3.20
2017-10-27T19:20:42.852Z,2.60
2017-10-27T19:23:09.490Z,2.60
2017-10-27T19:25:36.141Z,3.27
2017-10-27T19:28:03.241Z,3.00
2017-10-27T19:30:29.870Z,4.07
2017-10-27T19:32:56.516Z,2.30
2017-10-27T19:35:23.143Z,2.30
2017-10-27T19:37:49.780Z,3.23
2017-10-27T19:40:17.214Z,2.60
2017-10-27T19:42:43.857Z,2.37
2017-10-27T19:45:10.496Z,1.73
2017-10-27T19:47:37.151Z,2.10
2017-10-27T19:50:03.797Z,2.30
2017-10-27T19:52:30.480Z,1.90
2017-10-27T19:54:57.130Z,2.07
2017-10-27T19:57:23.793Z,2.80
2017-10-27T19:59:50.412Z,2.60
2017-10-27T20:02:17.019Z,2.67
2017-10-27T20:04:43.811Z,2.40
2017-10-27T20:07:10.456Z,3.67
2017-10-27T20:09:37.077Z,2.60
2017-10-27T20:12:03.718Z,3.03
2017-10-27T20:14:30.366Z,3.47
2017-10-27T20:16:56.991Z,3.30
2017-10-27T20:19:23.626Z,5.80
2017-10-27T20:21:50.260Z,7.30
2017-10-27T20:24:16.900Z,7.30
2017-10-27T20:26:43.548Z,9.20
2017-10-27T20:29:10.215Z,6.77
2017-10-27T20:31:36.864Z,6.80
2017-10-27T20:34:03.512Z,3.97
2017-10-27T20:36:30.164Z,2.30
2017-10-27T20:38:56.778Z,2.90
2017-10-27T20:41:23.414Z,3.40
2017-10-27T20:43:50.040Z,2.90
2017-10-27T20:46:16.674Z,3.90
2017-10-27T20:48:43.324Z,3.47
2017-10-27T20:51:10.137Z,3.53
2017-10-27T20:53:37.064Z,4.40
2017-10-27T20:56:03.680Z,4.43
2017-10-27T20:58:30.293Z,4.90
2017-10-27T21:00:56.943Z,4.10
2017-10-27T21:03:23.579Z,3.97
2017-10-27T21:05:50.237Z,3.77
2017-10-27T21:08:16.877Z,4.10
2017-10-27T21:10:43.543Z,3.93
2017-10-27T21:13:10.165Z,3.23
2017-10-27T21:15:36.791Z,3.83
2017-10-27T21:18:03.466Z,4.27
2017-10-27T21:20:30.086Z,3.50
2017-10-27T21:22:56.727Z,3.00
2017-10-27T21:25:23.338Z,5.00
2017-10-27T21:27:49.970Z,4.60
2017-10-27T21:30:16.609Z,4.63
2017-10-27T21:32:43.251Z,4.40
2017-10-27T21:35:09.890Z,4.23
2017-10-27T21:37:36.542Z,3.63
2017-10-27T21:40:03.171Z,4.83
2017-10-27T21:42:29.822Z,4.70
2017-10-27T21:44:56.441Z,3.33
2017-10-27T21:47:23.089Z,3.60
2017-10-27T21:49:49.743Z,3.90
2017-10-27T21:52:16.369Z,5.00
2017-10-27T21:54:42.992Z,3.77
2017-10-27T21:57:09.643Z,4.80
2017-10-27T21:59:36.287Z,3.80
2017-10-27T22:02:02.940Z,4.70
2017-10-27T22:04:29.612Z,4.30
2017-10-27T22:06:56.219Z,4.10
2017-10-27T22:09:22.872Z,4.37
2017-10-27T22:11:49.463Z,5.03
2017-10-27T22:14:16.099Z,5.23
2017-10-27T22:16:42.718Z,5.03
2017-10-27T22:19:09.335Z,5.17
2017-10-27T22:21:36.007Z,5.77
2017-10-27T22:24:02.627Z,4.40
2017-10-27T22:26:29.280Z,4.23
2017-10-27T22:28:55.898Z,3.10
2017-10-27T22:31:22.534Z,3.27
2017-10-27T22:33:49.176Z,3.27
2017-10-27T22:36:15.818Z,3.73
2017-10-27T22:38:42.474Z,5.40
2017-10-27T22:41:09.111Z,3.67
2017-10-27T22:43:35.768Z,4.33
2017-10-27T22:46:02.414Z,5.53
2017-10-27T22:48:29.033Z,4.00
2017-10-27T22:50:55.682Z,3.10
2017-10-27T22:53:22.292Z,4.43
2017-10-27T22:55:48.910Z,4.27
2017-10-27T22:58:15.536Z,3.37
2017-10-27T23:00:42.161Z,3.60
2017-10-27T23:03:08.778Z,3.50
2017-10-27T23:05:35.418Z,3.40
2017-10-27T23:08:07.712Z,4.47
2017-10-27T23:10:34.326Z,3.60
2017-10-27T23:13:00.955Z,4.00
2017-10-27T23:15:27.556Z,3.50
2017-10-27T23:17:54.198Z,4.50
2017-10-27T23:20:20.842Z,6.73
2017-10-27T23:22:47.470Z,3.80
2017-10-27T23:25:14.119Z,4.53
2017-10-27T23:27:40.734Z,3.50
2017-10-27T23:30:07.375Z,4.50
2017-10-27T23:32:33.995Z,4.73
2017-10-27T23:35:01.621Z,5.07
2017-10-27T23:37:28.262Z,4.80
2017-10-27T23:39:54.897Z,4.70
2017-10-27T23:42:21.544Z,3.70
2017-10-27T23:44:48.183Z,3.50
2017-10-27T23:47:14.815Z,3.97
2017-10-27T23:49:41.456Z,3.50
2017-10-27T23:52:08.081Z,4.70
2017-10-27T23:54:34.703Z,4.00
2017-10-27T23:57:01.354Z,3.40
2017-10-27T23:59:27.964Z,4.13
